sensor_id;sensor_type;location;lat;lon;timestamp;P1;durP1;ratioP1;P2;durP2;ratioP2
74749;SDS011;63269;53.330;-6.288;2023-02-11T00:01:36;2.17;;;1.10;;
74749;SDS011;63269;53.330;-6.288;2023-02-11T00:04:01;2.72;;;1.00;;
74749;SDS011;63269;53.330;-6.288;2023-02-11T00:06:28;3.20;;;1.50;;
74749;SDS011;63269;53.330;-6.288;2023-02-11T00:08:54;2.78;;;1.30;;
74749;SDS011;63269;53.330;-6.288;2023-02-11T00:11:21;3.42;;;1.20;;
74749;SDS011;63269;53.330;-6.288;2023-02-11T00:13:49;2.70;;;1.15;;
74749;SDS011;63269;53.330;-6.288;2023-02-11T00:16:16;2.50;;;1.55;;
74749;SDS011;63269;53.330;-6.288;2023-02-11T00:18:43;4.28;;;1.67;;
74749;SDS011;63269;53.330;-6.288;2023-02-11T00:21:15;2.00;;;1.30;;
74749;SDS011;63269;53.330;-6.288;2023-02-11T00:23:42;2.22;;;1.08;;
74749;SDS011;63269;53.330;-6.288;2023-02-11T00:26:18;3.40;;;1.20;;
74749;SDS011;63269;53.330;-6.288;2023-02-11T00:28:44;3.47;;;1.17;;
74749;SDS011;63269;53.330;-6.288;2023-02-11T00:31:11;2.40;;;1.20;;
74749;SDS011;63269;53.330;-6.288;2023-02-11T00:33:37;2.70;;;1.45;;
74749;SDS011;63269;53.330;-6.288;2023-02-11T00:36:06;2.95;;;1.70;;
74749;SDS011;63269;53.330;-6.288;2023-02-11T00:38:41;1.67;;;1.30;;
74749;SDS011;63269;53.330;-6.288;2023-02-11T00:41:10;4.40;;;1.85;;
74749;SDS011;63269;53.330;-6.288;2023-02-11T00:43:37;2.50;;;1.58;;
74749;SDS011;63269;53.330;-6.288;2023-02-11T00:46:03;2.65;;;1.40;;
74749;SDS011;63269;53.330;-6.288;2023-02-11T00:48:29;3.13;;;1.45;;
74749;SDS011;63269;53.330;-6.288;2023-02-11T00:50:55;3.90;;;1.45;;
74749;SDS011;63269;53.330;-6.288;2023-02-11T00:53:20;4.32;;;1.30;;
74749;SDS011;63269;53.330;-6.288;2023-02-11T00:55:46;2.75;;;1.20;;
74749;SDS011;63269;53.330;-6.288;2023-02-11T00:58:11;2.53;;;1.60;;
74749;SDS011;63269;53.330;-6.288;2023-02-11T01:00:36;2.63;;;1.10;;
74749;SDS011;63269;53.330;-6.288;2023-02-11T01:03:02;2.67;;;1.40;;
74749;SDS011;63269;53.330;-6.288;2023-02-11T01:05:27;3.15;;;1.42;;
74749;SDS011;63269;53.330;-6.288;2023-02-11T01:07:53;2.70;;;1.40;;
74749;SDS011;63269;53.330;-6.288;2023-02-11T01:10:18;2.55;;;1.80;;
74749;SDS011;63269;53.330;-6.288;2023-02-11T01:12:43;3.28;;;1.55;;
74749;SDS011;63269;53.330;-6.288;2023-02-11T01:15:11;2.33;;;1.55;;
74749;SDS011;63269;53.330;-6.288;2023-02-11T01:17:38;3.25;;;1.50;;
74749;SDS011;63269;53.330;-6.288;2023-02-11T01:20:04;2.28;;;1.35;;
74749;SDS011;63269;53.330;-6.288;2023-02-11T01:22:31;2.17;;;1.38;;
74749;SDS011;63269;53.330;-6.288;2023-02-11T01:24:58;2.38;;;1.02;;
74749;SDS011;63269;53.330;-6.288;2023-02-11T01:27:24;2.80;;;1.33;;
74749;SDS011;63269;53.330;-6.288;2023-02-11T01:29:49;3.63;;;1.30;;
74749;SDS011;63269;53.330;-6.288;2023-02-11T01:32:15;2.30;;;1.23;;
74749;SDS011;63269;53.330;-6.288;2023-02-11T01:34:40;2.00;;;0.98;;
74749;SDS011;63269;53.330;-6.288;2023-02-11T01:37:06;3.58;;;1.45;;
74749;SDS011;63269;53.330;-6.288;2023-02-11T01:39:32;2.03;;;1.10;;
74749;SDS011;63269;53.330;-6.288;2023-02-11T01:41:58;3.33;;;1.35;;
74749;SDS011;63269;53.330;-6.288;2023-02-11T01:46:57;1.70;;;1.15;;
74749;SDS011;63269;53.330;-6.288;2023-02-11T01:49:27;3.13;;;1.20;;
74749;SDS011;63269;53.330;-6.288;2023-02-11T01:54:34;1.92;;;1.13;;
74749;SDS011;63269;53.330;-6.288;2023-02-11T01:57:23;3.72;;;1.00;;
74749;SDS011;63269;53.330;-6.288;2023-02-11T02:00:07;2.03;;;1.05;;
74749;SDS011;63269;53.330;-6.288;2023-02-11T02:08:16;1.85;;;0.90;;
74749;SDS011;63269;53.330;-6.288;2023-02-11T02:10:43;2.63;;;1.33;;
74749;SDS011;63269;53.330;-6.288;2023-02-11T02:13:11;1.60;;;0.80;;
74749;SDS011;63269;53.330;-6.288;2023-02-11T02:15:37;1.50;;;0.93;;
74749;SDS011;63269;53.330;-6.288;2023-02-11T02:18:39;2.45;;;0.90;;
74749;SDS011;63269;53.330;-6.288;2023-02-11T02:23:44;2.17;;;1.17;;
74749;SDS011;63269;53.330;-6.288;2023-02-11T02:40:03;1.80;;;0.80;;
74749;SDS011;63269;53.330;-6.288;2023-02-11T02:42:35;2.03;;;0.90;;
74749;SDS011;63269;53.330;-6.288;2023-02-11T02:45:04;2.40;;;0.90;;
74749;SDS011;63269;53.330;-6.288;2023-02-11T02:47:31;1.50;;;0.80;;
74749;SDS011;63269;53.330;-6.288;2023-02-11T02:49:57;1.45;;;0.77;;
74749;SDS011;63269;53.330;-6.288;2023-02-11T02:55:13;1.48;;;0.98;;
74749;SDS011;63269;53.330;-6.288;2023-02-11T03:03:47;1.50;;;0.80;;
74749;SDS011;63269;53.330;-6.288;2023-02-11T03:06:34;1.40;;;0.70;;
74749;SDS011;63269;53.330;-6.288;2023-02-11T03:09:07;1.55;;;0.70;;
74749;SDS011;63269;53.330;-6.288;2023-02-11T03:11:37;1.38;;;0.68;;
74749;SDS011;63269;53.330;-6.288;2023-02-11T03:14:05;1.30;;;0.68;;
74749;SDS011;63269;53.330;-6.288;2023-02-11T03:16:36;1.75;;;0.70;;
74749;SDS011;63269;53.330;-6.288;2023-02-11T03:19:11;2.33;;;1.40;;
74749;SDS011;63269;53.330;-6.288;2023-02-11T03:21:39;3.88;;;0.80;;
74749;SDS011;63269;53.330;-6.288;2023-02-11T03:24:11;2.90;;;0.80;;
74749;SDS011;63269;53.330;-6.288;2023-02-11T03:33:04;2.65;;;1.05;;
74749;SDS011;63269;53.330;-6.288;2023-02-11T03:38:47;1.58;;;0.70;;
74749;SDS011;63269;53.330;-6.288;2023-02-11T03:41:16;1.67;;;0.75;;
74749;SDS011;63269;53.330;-6.288;2023-02-11T03:43:47;2.83;;;0.80;;
74749;SDS011;63269;53.330;-6.288;2023-02-11T03:46:16;2.40;;;1.00;;
74749;SDS011;63269;53.330;-6.288;2023-02-11T03:48:48;2.70;;;0.87;;
74749;SDS011;63269;53.330;-6.288;2023-02-11T03:51:18;1.63;;;0.60;;
74749;SDS011;63269;53.330;-6.288;2023-02-11T03:53:46;1.20;;;0.63;;
74749;SDS011;63269;53.330;-6.288;2023-02-11T03:56:16;1.88;;;0.80;;
74749;SDS011;63269;53.330;-6.288;2023-02-11T04:01:10;2.10;;;0.70;;
74749;SDS011;63269;53.330;-6.288;2023-02-11T04:03:35;1.90;;;0.77;;
74749;SDS011;63269;53.330;-6.288;2023-02-11T04:06:01;2.13;;;0.85;;
74749;SDS011;63269;53.330;-6.288;2023-02-11T04:08:26;1.75;;;0.63;;
74749;SDS011;63269;53.330;-6.288;2023-02-11T04:10:52;1.83;;;0.65;;
74749;SDS011;63269;53.330;-6.288;2023-02-11T04:13:17;1.40;;;0.70;;
74749;SDS011;63269;53.330;-6.288;2023-02-11T04:15:42;1.45;;;0.60;;
74749;SDS011;63269;53.330;-6.288;2023-02-11T04:18:08;1.23;;;0.60;;
74749;SDS011;63269;53.330;-6.288;2023-02-11T04:20:33;1.45;;;0.75;;
74749;SDS011;63269;53.330;-6.288;2023-02-11T04:22:59;1.52;;;0.57;;
74749;SDS011;63269;53.330;-6.288;2023-02-11T04:25:24;1.70;;;0.90;;
74749;SDS011;63269;53.330;-6.288;2023-02-11T04:27:50;1.25;;;0.55;;
74749;SDS011;63269;53.330;-6.288;2023-02-11T04:30:15;1.40;;;0.50;;
74749;SDS011;63269;53.330;-6.288;2023-02-11T04:32:41;2.05;;;0.63;;
74749;SDS011;63269;53.330;-6.288;2023-02-11T04:35:06;1.75;;;0.65;;
74749;SDS011;63269;53.330;-6.288;2023-02-11T04:37:32;1.77;;;0.90;;
74749;SDS011;63269;53.330;-6.288;2023-02-11T04:39:57;2.33;;;0.77;;
74749;SDS011;63269;53.330;-6.288;2023-02-11T04:42:23;2.08;;;0.80;;
74749;SDS011;63269;53.330;-6.288;2023-02-11T04:44:48;1.77;;;0.80;;
74749;SDS011;63269;53.330;-6.288;2023-02-11T04:47:14;1.17;;;0.60;;
74749;SDS011;63269;53.330;-6.288;2023-02-11T04:49:39;1.65;;;0.60;;
74749;SDS011;63269;53.330;-6.288;2023-02-11T04:52:05;1.75;;;0.60;;
74749;SDS011;63269;53.330;-6.288;2023-02-11T04:54:31;1.38;;;0.60;;
74749;SDS011;63269;53.330;-6.288;2023-02-11T04:56:56;3.15;;;1.25;;
74749;SDS011;63269;53.330;-6.288;2023-02-11T04:59:22;1.55;;;0.77;;
74749;SDS011;63269;53.330;-6.288;2023-02-11T05:01:48;1.40;;;0.60;;
74749;SDS011;63269;53.330;-6.288;2023-02-11T05:04:14;1.25;;;0.60;;
74749;SDS011;63269;53.330;-6.288;2023-02-11T05:06:40;1.88;;;0.60;;
74749;SDS011;63269;53.330;-6.288;2023-02-11T05:09:05;0.93;;;0.47;;
74749;SDS011;63269;53.330;-6.288;2023-02-11T05:11:31;2.45;;;0.82;;
74749;SDS011;63269;53.330;-6.288;2023-02-11T05:13:56;0.98;;;0.45;;
74749;SDS011;63269;53.330;-6.288;2023-02-11T05:16:22;1.13;;;0.50;;
74749;SDS011;63269;53.330;-6.288;2023-02-11T05:18:47;1.50;;;0.60;;
74749;SDS011;63269;53.330;-6.288;2023-02-11T05:21:15;2.30;;;0.50;;
74749;SDS011;63269;53.330;-6.288;2023-02-11T05:23:42;2.33;;;0.95;;
74749;SDS011;63269;53.330;-6.288;2023-02-11T05:26:08;1.55;;;0.70;;
74749;SDS011;63269;53.330;-6.288;2023-02-11T05:28:35;0.93;;;0.40;;
74749;SDS011;63269;53.330;-6.288;2023-02-11T05:31:00;0.75;;;0.50;;
74749;SDS011;63269;53.330;-6.288;2023-02-11T05:33:26;0.75;;;0.40;;
74749;SDS011;63269;53.330;-6.288;2023-02-11T05:35:57;1.05;;;0.50;;
74749;SDS011;63269;53.330;-6.288;2023-02-11T05:38:26;1.08;;;0.57;;
74749;SDS011;63269;53.330;-6.288;2023-02-11T05:40:52;2.05;;;1.05;;
74749;SDS011;63269;53.330;-6.288;2023-02-11T05:43:17;2.08;;;0.60;;
74749;SDS011;63269;53.330;-6.288;2023-02-11T05:45:43;1.05;;;0.47;;
74749;SDS011;63269;53.330;-6.288;2023-02-11T05:48:08;0.93;;;0.35;;
74749;SDS011;63269;53.330;-6.288;2023-02-11T05:50:34;0.68;;;0.40;;
74749;SDS011;63269;53.330;-6.288;2023-02-11T05:52:59;0.65;;;0.40;;
74749;SDS011;63269;53.330;-6.288;2023-02-11T05:55:24;2.05;;;0.50;;
74749;SDS011;63269;53.330;-6.288;2023-02-11T05:57:50;1.02;;;0.50;;
74749;SDS011;63269;53.330;-6.288;2023-02-11T06:00:15;1.70;;;0.50;;
74749;SDS011;63269;53.330;-6.288;2023-02-11T06:02:41;1.15;;;0.28;;
74749;SDS011;63269;53.330;-6.288;2023-02-11T06:05:07;0.95;;;0.40;;
74749;SDS011;63269;53.330;-6.288;2023-02-11T06:07:33;0.93;;;0.50;;
74749;SDS011;63269;53.330;-6.288;2023-02-11T06:09:58;0.80;;;0.45;;
74749;SDS011;63269;53.330;-6.288;2023-02-11T06:12:24;0.68;;;0.30;;
74749;SDS011;63269;53.330;-6.288;2023-02-11T06:14:49;0.43;;;0.22;;
74749;SDS011;63269;53.330;-6.288;2023-02-11T06:17:15;2.15;;;0.50;;
74749;SDS011;63269;53.330;-6.288;2023-02-11T06:19:40;0.60;;;0.30;;
74749;SDS011;63269;53.330;-6.288;2023-02-11T06:22:06;0.85;;;0.65;;
74749;SDS011;63269;53.330;-6.288;2023-02-11T06:24:31;0.73;;;0.38;;
74749;SDS011;63269;53.330;-6.288;2023-02-11T06:26:56;0.60;;;0.38;;
74749;SDS011;63269;53.330;-6.288;2023-02-11T06:29:22;1.45;;;0.50;;
74749;SDS011;63269;53.330;-6.288;2023-02-11T06:31:47;0.90;;;0.40;;
74749;SDS011;63269;53.330;-6.288;2023-02-11T06:34:12;0.90;;;0.40;;
74749;SDS011;63269;53.330;-6.288;2023-02-11T06:36:38;2.00;;;0.40;;
74749;SDS011;63269;53.330;-6.288;2023-02-11T06:39:05;0.98;;;0.40;;
74749;SDS011;63269;53.330;-6.288;2023-02-11T06:41:31;0.52;;;0.28;;
74749;SDS011;63269;53.330;-6.288;2023-02-11T06:43:56;1.48;;;0.30;;
74749;SDS011;63269;53.330;-6.288;2023-02-11T06:46:21;1.23;;;0.35;;
74749;SDS011;63269;53.330;-6.288;2023-02-11T06:48:47;1.00;;;0.40;;
74749;SDS011;63269;53.330;-6.288;2023-02-11T06:51:12;1.00;;;0.40;;
74749;SDS011;63269;53.330;-6.288;2023-02-11T06:53:40;0.95;;;0.30;;
74749;SDS011;63269;53.330;-6.288;2023-02-11T06:56:09;0.73;;;0.30;;
74749;SDS011;63269;53.330;-6.288;2023-02-11T06:58:36;1.45;;;0.35;;
74749;SDS011;63269;53.330;-6.288;2023-02-11T07:01:05;0.70;;;0.30;;
74749;SDS011;63269;53.330;-6.288;2023-02-11T07:03:33;1.83;;;0.75;;
74749;SDS011;63269;53.330;-6.288;2023-02-11T07:06:00;1.63;;;0.50;;
74749;SDS011;63269;53.330;-6.288;2023-02-11T07:08:26;1.38;;;0.60;;
74749;SDS011;63269;53.330;-6.288;2023-02-11T07:10:51;2.13;;;0.50;;
74749;SDS011;63269;53.330;-6.288;2023-02-11T07:13:17;1.35;;;0.40;;
74749;SDS011;63269;53.330;-6.288;2023-02-11T07:15:42;2.20;;;0.40;;
74749;SDS011;63269;53.330;-6.288;2023-02-11T07:18:07;0.90;;;0.30;;
74749;SDS011;63269;53.330;-6.288;2023-02-11T07:20:33;0.85;;;0.40;;
74749;SDS011;63269;53.330;-6.288;2023-02-11T07:22:58;0.55;;;0.30;;
74749;SDS011;63269;53.330;-6.288;2023-02-11T07:25:24;0.88;;;0.50;;
74749;SDS011;63269;53.330;-6.288;2023-02-11T07:27:49;1.02;;;0.35;;
74749;SDS011;63269;53.330;-6.288;2023-02-11T07:30:15;1.08;;;0.32;;
74749;SDS011;63269;53.330;-6.288;2023-02-11T07:32:40;1.55;;;0.40;;
74749;SDS011;63269;53.330;-6.288;2023-02-11T07:35:06;1.80;;;0.20;;
74749;SDS011;63269;53.330;-6.288;2023-02-11T07:37:34;1.23;;;0.35;;
74749;SDS011;63269;53.330;-6.288;2023-02-11T07:40:00;1.05;;;0.43;;
74749;SDS011;63269;53.330;-6.288;2023-02-11T07:42:26;0.77;;;0.30;;
74749;SDS011;63269;53.330;-6.288;2023-02-11T07:44:51;1.08;;;0.40;;
74749;SDS011;63269;53.330;-6.288;2023-02-11T07:47:16;0.98;;;0.43;;
74749;SDS011;63269;53.330;-6.288;2023-02-11T07:49:42;1.08;;;0.40;;
74749;SDS011;63269;53.330;-6.288;2023-02-11T07:52:07;1.00;;;0.30;;
74749;SDS011;63269;53.330;-6.288;2023-02-11T07:54:33;1.30;;;0.35;;
74749;SDS011;63269;53.330;-6.288;2023-02-11T07:56:58;0.82;;;0.30;;
74749;SDS011;63269;53.330;-6.288;2023-02-11T07:59:23;1.40;;;0.35;;
74749;SDS011;63269;53.330;-6.288;2023-02-11T08:01:49;1.27;;;0.40;;
74749;SDS011;63269;53.330;-6.288;2023-02-11T08:04:15;1.45;;;0.50;;
74749;SDS011;63269;53.330;-6.288;2023-02-11T08:06:41;0.75;;;0.30;;
74749;SDS011;63269;53.330;-6.288;2023-02-11T08:09:08;1.35;;;0.30;;
74749;SDS011;63269;53.330;-6.288;2023-02-11T08:11:38;1.02;;;0.40;;
74749;SDS011;63269;53.330;-6.288;2023-02-11T08:14:04;1.02;;;0.40;;
74749;SDS011;63269;53.330;-6.288;2023-02-11T08:16:30;1.83;;;0.60;;
74749;SDS011;63269;53.330;-6.288;2023-02-11T08:18:58;0.65;;;0.38;;
74749;SDS011;63269;53.330;-6.288;2023-02-11T08:21:26;1.33;;;0.70;;
74749;SDS011;63269;53.330;-6.288;2023-02-11T08:23:52;1.17;;;0.50;;
74749;SDS011;63269;53.330;-6.288;2023-02-11T08:26:19;1.23;;;0.47;;
74749;SDS011;63269;53.330;-6.288;2023-02-11T08:28:46;1.88;;;0.60;;
74749;SDS011;63269;53.330;-6.288;2023-02-11T08:31:22;1.25;;;0.45;;
74749;SDS011;63269;53.330;-6.288;2023-02-11T08:33:50;1.00;;;0.47;;
74749;SDS011;63269;53.330;-6.288;2023-02-11T08:36:19;1.23;;;0.32;;
74749;SDS011;63269;53.330;-6.288;2023-02-11T08:38:47;1.30;;;0.40;;
74749;SDS011;63269;53.330;-6.288;2023-02-11T08:41:13;2.85;;;0.70;;
74749;SDS011;63269;53.330;-6.288;2023-02-11T08:43:39;2.13;;;0.47;;
74749;SDS011;63269;53.330;-6.288;2023-02-11T08:46:06;1.38;;;0.60;;
74749;SDS011;63269;53.330;-6.288;2023-02-11T08:48:32;0.82;;;0.40;;
74749;SDS011;63269;53.330;-6.288;2023-02-11T08:50:58;1.38;;;0.50;;
74749;SDS011;63269;53.330;-6.288;2023-02-11T08:53:24;1.35;;;0.30;;
74749;SDS011;63269;53.330;-6.288;2023-02-11T08:55:50;1.48;;;0.70;;
74749;SDS011;63269;53.330;-6.288;2023-02-11T08:58:19;0.95;;;0.30;;
74749;SDS011;63269;53.330;-6.288;2023-02-11T09:00:46;2.47;;;0.63;;
74749;SDS011;63269;53.330;-6.288;2023-02-11T09:03:13;1.15;;;0.50;;
74749;SDS011;63269;53.330;-6.288;2023-02-11T09:05:46;0.60;;;0.40;;
74749;SDS011;63269;53.330;-6.288;2023-02-11T09:08:14;1.27;;;0.50;;
74749;SDS011;63269;53.330;-6.288;2023-02-11T09:10:41;1.02;;;0.60;;
74749;SDS011;63269;53.330;-6.288;2023-02-11T09:13:07;1.10;;;0.47;;
74749;SDS011;63269;53.330;-6.288;2023-02-11T09:15:33;1.60;;;0.60;;
74749;SDS011;63269;53.330;-6.288;2023-02-11T09:17:59;1.85;;;0.80;;
74749;SDS011;63269;53.330;-6.288;2023-02-11T09:20:24;1.52;;;0.50;;
74749;SDS011;63269;53.330;-6.288;2023-02-11T09:22:53;1.60;;;0.55;;
74749;SDS011;63269;53.330;-6.288;2023-02-11T09:25:21;0.95;;;0.40;;
74749;SDS011;63269;53.330;-6.288;2023-02-11T09:27:46;1.48;;;0.57;;
74749;SDS011;63269;53.330;-6.288;2023-02-11T09:30:12;1.23;;;0.60;;
74749;SDS011;63269;53.330;-6.288;2023-02-11T09:32:37;1.73;;;0.80;;
74749;SDS011;63269;53.330;-6.288;2023-02-11T09:35:03;1.35;;;0.77;;
74749;SDS011;63269;53.330;-6.288;2023-02-11T09:37:28;1.95;;;0.80;;
74749;SDS011;63269;53.330;-6.288;2023-02-11T09:39:54;2.67;;;0.80;;
74749;SDS011;63269;53.330;-6.288;2023-02-11T09:45:11;2.08;;;0.90;;
74749;SDS011;63269;53.330;-6.288;2023-02-11T09:47:45;6.80;;;2.17;;
74749;SDS011;63269;53.330;-6.288;2023-02-11T09:50:57;9.75;;;4.60;;
74749;SDS011;63269;53.330;-6.288;2023-02-11T09:53:22;9.32;;;4.78;;
74749;SDS011;63269;53.330;-6.288;2023-02-11T09:55:55;11.25;;;6.32;;
74749;SDS011;63269;53.330;-6.288;2023-02-11T09:58:27;10.13;;;6.25;;
74749;SDS011;63269;53.330;-6.288;2023-02-11T10:06:17;9.68;;;6.53;;
74749;SDS011;63269;53.330;-6.288;2023-02-11T10:14:47;11.18;;;6.88;;
74749;SDS011;63269;53.330;-6.288;2023-02-11T10:25:53;10.40;;;7.35;;
74749;SDS011;63269;53.330;-6.288;2023-02-11T10:28:21;10.60;;;5.55;;
74749;SDS011;63269;53.330;-6.288;2023-02-11T10:30:56;15.77;;;6.40;;
74749;SDS011;63269;53.330;-6.288;2023-02-11T10:33:31;10.02;;;6.13;;
74749;SDS011;63269;53.330;-6.288;2023-02-11T10:36:03;10.10;;;6.10;;
74749;SDS011;63269;53.330;-6.288;2023-02-11T10:38:29;11.15;;;5.35;;
74749;SDS011;63269;53.330;-6.288;2023-02-11T10:40:55;12.27;;;5.47;;
74749;SDS011;63269;53.330;-6.288;2023-02-11T10:43:22;9.70;;;5.43;;
74749;SDS011;63269;53.330;-6.288;2023-02-11T10:45:51;10.55;;;5.28;;
74749;SDS011;63269;53.330;-6.288;2023-02-11T10:51:06;10.20;;;4.95;;
74749;SDS011;63269;53.330;-6.288;2023-02-11T10:53:35;8.13;;;5.28;;
74749;SDS011;63269;53.330;-6.288;2023-02-11T10:56:01;10.38;;;5.22;;
74749;SDS011;63269;53.330;-6.288;2023-02-11T10:58:30;9.13;;;5.40;;
74749;SDS011;63269;53.330;-6.288;2023-02-11T11:00:57;8.02;;;4.65;;
74749;SDS011;63269;53.330;-6.288;2023-02-11T11:03:33;10.18;;;4.57;;
74749;SDS011;63269;53.330;-6.288;2023-02-11T11:06:32;6.68;;;4.35;;
74749;SDS011;63269;53.330;-6.288;2023-02-11T11:08:58;10.50;;;4.20;;
74749;SDS011;63269;53.330;-6.288;2023-02-11T11:11:24;7.10;;;3.70;;
74749;SDS011;63269;53.330;-6.288;2023-02-11T11:18:48;9.20;;;4.07;;
74749;SDS011;63269;53.330;-6.288;2023-02-11T11:23:45;6.85;;;3.92;;
74749;SDS011;63269;53.330;-6.288;2023-02-11T11:26:22;8.43;;;4.13;;
74749;SDS011;63269;53.330;-6.288;2023-02-11T11:28:53;7.57;;;3.55;;
74749;SDS011;63269;53.330;-6.288;2023-02-11T11:31:23;75.57;;;68.35;;
74749;SDS011;63269;53.330;-6.288;2023-02-11T11:33:52;65.78;;;58.40;;
74749;SDS011;63269;53.330;-6.288;2023-02-11T11:36:21;24.63;;;13.70;;
74749;SDS011;63269;53.330;-6.288;2023-02-11T11:38:55;12.68;;;6.30;;
74749;SDS011;63269;53.330;-6.288;2023-02-11T11:41:28;9.60;;;4.75;;
74749;SDS011;63269;53.330;-6.288;2023-02-11T11:46:28;8.88;;;4.20;;
74749;SDS011;63269;53.330;-6.288;2023-02-11T11:49:00;8.00;;;4.22;;
74749;SDS011;63269;53.330;-6.288;2023-02-11T11:51:44;10.75;;;4.82;;
74749;SDS011;63269;53.330;-6.288;2023-02-11T11:54:16;7.38;;;4.10;;
74749;SDS011;63269;53.330;-6.288;2023-02-11T11:56:46;9.00;;;4.35;;
74749;SDS011;63269;53.330;-6.288;2023-02-11T11:59:17;7.38;;;4.55;;
74749;SDS011;63269;53.330;-6.288;2023-02-11T12:02:00;8.13;;;3.97;;
74749;SDS011;63269;53.330;-6.288;2023-02-11T12:08:02;6.07;;;3.78;;
74749;SDS011;63269;53.330;-6.288;2023-02-11T12:26:31;8.95;;;3.08;;
74749;SDS011;63269;53.330;-6.288;2023-02-11T12:37:14;4.95;;;2.78;;
74749;SDS011;63269;53.330;-6.288;2023-02-11T12:39:49;5.95;;;2.78;;
74749;SDS011;63269;53.330;-6.288;2023-02-11T12:42:57;6.18;;;2.92;;
74749;SDS011;63269;53.330;-6.288;2023-02-11T12:59:21;4.45;;;2.40;;
74749;SDS011;63269;53.330;-6.288;2023-02-11T13:01:50;4.68;;;2.00;;
74749;SDS011;63269;53.330;-6.288;2023-02-11T13:04:18;4.68;;;2.35;;
74749;SDS011;63269;53.330;-6.288;2023-02-11T13:07:02;4.72;;;2.00;;
74749;SDS011;63269;53.330;-6.288;2023-02-11T13:09:38;7.35;;;2.15;;
74749;SDS011;63269;53.330;-6.288;2023-02-11T13:12:08;4.25;;;2.08;;
74749;SDS011;63269;53.330;-6.288;2023-02-11T13:14:55;3.03;;;1.45;;
74749;SDS011;63269;53.330;-6.288;2023-02-11T13:17:36;4.90;;;2.17;;
74749;SDS011;63269;53.330;-6.288;2023-02-11T13:20:13;6.15;;;2.17;;
74749;SDS011;63269;53.330;-6.288;2023-02-11T13:22:51;4.15;;;1.45;;
74749;SDS011;63269;53.330;-6.288;2023-02-11T13:25:41;4.38;;;1.70;;
74749;SDS011;63269;53.330;-6.288;2023-02-11T13:28:36;5.45;;;1.60;;
74749;SDS011;63269;53.330;-6.288;2023-02-11T13:31:11;5.63;;;1.73;;
74749;SDS011;63269;53.330;-6.288;2023-02-11T13:33:40;4.85;;;1.30;;
74749;SDS011;63269;53.330;-6.288;2023-02-11T13:39:16;3.65;;;1.92;;
74749;SDS011;63269;53.330;-6.288;2023-02-11T13:41:42;3.75;;;1.40;;
74749;SDS011;63269;53.330;-6.288;2023-02-11T13:49:31;3.08;;;1.63;;
74749;SDS011;63269;53.330;-6.288;2023-02-11T13:51:59;3.10;;;1.33;;
74749;SDS011;63269;53.330;-6.288;2023-02-11T13:54:31;2.55;;;1.13;;
74749;SDS011;63269;53.330;-6.288;2023-02-11T13:57:41;5.13;;;1.67;;
74749;SDS011;63269;53.330;-6.288;2023-02-11T13:59:57;6.00;;;1.40;;
74749;SDS011;63269;53.330;-6.288;2023-02-11T14:02:34;5.30;;;1.45;;
74749;SDS011;63269;53.330;-6.288;2023-02-11T14:13:23;5.82;;;1.13;;
74749;SDS011;63269;53.330;-6.288;2023-02-11T14:16:03;3.83;;;1.42;;
74749;SDS011;63269;53.330;-6.288;2023-02-11T14:29:22;3.35;;;1.30;;
74749;SDS011;63269;53.330;-6.288;2023-02-11T14:37:17;4.10;;;1.55;;
74749;SDS011;63269;53.330;-6.288;2023-02-11T14:39:59;2.38;;;1.15;;
74749;SDS011;63269;53.330;-6.288;2023-02-11T14:42:25;3.67;;;1.17;;
74749;SDS011;63269;53.330;-6.288;2023-02-11T14:44:54;4.35;;;1.52;;
74749;SDS011;63269;53.330;-6.288;2023-02-11T14:47:44;3.17;;;1.20;;
74749;SDS011;63269;53.330;-6.288;2023-02-11T14:50:50;4.60;;;1.10;;
74749;SDS011;63269;53.330;-6.288;2023-02-11T14:53:18;3.50;;;1.27;;
74749;SDS011;63269;53.330;-6.288;2023-02-11T14:55:47;3.20;;;1.30;;
74749;SDS011;63269;53.330;-6.288;2023-02-11T14:58:27;3.10;;;1.23;;
74749;SDS011;63269;53.330;-6.288;2023-02-11T15:01:01;2.45;;;1.08;;
74749;SDS011;63269;53.330;-6.288;2023-02-11T15:08:44;2.70;;;1.00;;
74749;SDS011;63269;53.330;-6.288;2023-02-11T15:11:14;2.63;;;1.17;;
74749;SDS011;63269;53.330;-6.288;2023-02-11T15:13:42;3.28;;;1.10;;
74749;SDS011;63269;53.330;-6.288;2023-02-11T15:16:18;3.63;;;1.63;;
74749;SDS011;63269;53.330;-6.288;2023-02-11T15:18:53;3.75;;;1.13;;
74749;SDS011;63269;53.330;-6.288;2023-02-11T15:21:27;2.58;;;1.35;;
74749;SDS011;63269;53.330;-6.288;2023-02-11T15:24:02;3.30;;;1.08;;
74749;SDS011;63269;53.330;-6.288;2023-02-11T15:26:54;3.10;;;1.10;;
74749;SDS011;63269;53.330;-6.288;2023-02-11T15:29:47;3.35;;;1.10;;
74749;SDS011;63269;53.330;-6.288;2023-02-11T15:34:44;2.22;;;1.15;;
74749;SDS011;63269;53.330;-6.288;2023-02-11T15:37:24;2.40;;;1.00;;
74749;SDS011;63269;53.330;-6.288;2023-02-11T15:39:51;3.53;;;1.00;;
74749;SDS011;63269;53.330;-6.288;2023-02-11T15:42:27;2.85;;;1.10;;
74749;SDS011;63269;53.330;-6.288;2023-02-11T15:48:13;3.63;;;1.42;;
74749;SDS011;63269;53.330;-6.288;2023-02-11T15:50:42;2.85;;;1.25;;
74749;SDS011;63269;53.330;-6.288;2023-02-11T15:53:27;5.22;;;1.50;;
74749;SDS011;63269;53.330;-6.288;2023-02-11T15:58:50;2.83;;;1.15;;
74749;SDS011;63269;53.330;-6.288;2023-02-11T16:01:26;3.67;;;1.27;;
74749;SDS011;63269;53.330;-6.288;2023-02-11T16:03:53;3.25;;;1.10;;
74749;SDS011;63269;53.330;-6.288;2023-02-11T16:06:22;2.75;;;1.30;;
74749;SDS011;63269;53.330;-6.288;2023-02-11T16:08:56;4.13;;;1.73;;
74749;SDS011;63269;53.330;-6.288;2023-02-11T16:11:31;4.45;;;1.52;;
74749;SDS011;63269;53.330;-6.288;2023-02-11T16:13:59;2.45;;;1.17;;
74749;SDS011;63269;53.330;-6.288;2023-02-11T16:16:32;2.72;;;1.20;;
74749;SDS011;63269;53.330;-6.288;2023-02-11T16:18:59;2.40;;;1.10;;
74749;SDS011;63269;53.330;-6.288;2023-02-11T16:21:27;2.17;;;1.00;;
74749;SDS011;63269;53.330;-6.288;2023-02-11T16:23:58;3.05;;;1.20;;
74749;SDS011;63269;53.330;-6.288;2023-02-11T16:29:05;2.92;;;1.27;;
74749;SDS011;63269;53.330;-6.288;2023-02-11T16:31:35;3.40;;;1.30;;
74749;SDS011;63269;53.330;-6.288;2023-02-11T16:34:06;3.05;;;1.10;;
74749;SDS011;63269;53.330;-6.288;2023-02-11T16:36:36;3.30;;;1.33;;
74749;SDS011;63269;53.330;-6.288;2023-02-11T16:39:01;3.00;;;1.40;;
74749;SDS011;63269;53.330;-6.288;2023-02-11T16:41:27;2.38;;;1.00;;
74749;SDS011;63269;53.330;-6.288;2023-02-11T16:43:54;3.10;;;1.20;;
74749;SDS011;63269;53.330;-6.288;2023-02-11T16:46:20;2.60;;;1.20;;
74749;SDS011;63269;53.330;-6.288;2023-02-11T16:48:46;2.65;;;1.10;;
74749;SDS011;63269;53.330;-6.288;2023-02-11T16:51:11;3.38;;;0.85;;
74749;SDS011;63269;53.330;-6.288;2023-02-11T16:53:37;2.55;;;1.10;;
74749;SDS011;63269;53.330;-6.288;2023-02-11T16:56:02;2.33;;;0.95;;
74749;SDS011;63269;53.330;-6.288;2023-02-11T16:58:28;4.47;;;1.20;;
74749;SDS011;63269;53.330;-6.288;2023-02-11T17:00:53;9.40;;;1.65;;
74749;SDS011;63269;53.330;-6.288;2023-02-11T17:03:22;10.38;;;1.60;;
74749;SDS011;63269;53.330;-6.288;2023-02-11T17:08:17;5.28;;;1.80;;
74749;SDS011;63269;53.330;-6.288;2023-02-11T17:10:43;5.03;;;1.75;;
74749;SDS011;63269;53.330;-6.288;2023-02-11T17:13:08;5.68;;;2.15;;
74749;SDS011;63269;53.330;-6.288;2023-02-11T17:15:34;6.10;;;1.60;;
74749;SDS011;63269;53.330;-6.288;2023-02-11T17:17:59;6.38;;;1.40;;
74749;SDS011;63269;53.330;-6.288;2023-02-11T17:20:25;5.95;;;1.40;;
74749;SDS011;63269;53.330;-6.288;2023-02-11T17:22:50;5.68;;;2.00;;
74749;SDS011;63269;53.330;-6.288;2023-02-11T17:25:16;3.70;;;1.48;;
74749;SDS011;63269;53.330;-6.288;2023-02-11T17:27:42;18.15;;;2.10;;
74749;SDS011;63269;53.330;-6.288;2023-02-11T17:30:07;7.47;;;2.05;;
74749;SDS011;63269;53.330;-6.288;2023-02-11T17:32:34;5.55;;;1.65;;
74749;SDS011;63269;53.330;-6.288;2023-02-11T17:35:00;11.25;;;2.78;;
74749;SDS011;63269;53.330;-6.288;2023-02-11T17:37:26;5.55;;;1.73;;
74749;SDS011;63269;53.330;-6.288;2023-02-11T17:39:52;7.50;;;1.85;;
74749;SDS011;63269;53.330;-6.288;2023-02-11T17:42:17;7.53;;;1.60;;